METAR Data
IDs: Format: Raw Decoded Include TAF

Data at: 1350 UTC 10 Jul 2020

Region: TOP
KATL 101252Z 32005KT 10SM FEW045 FEW180 26/22 A2999 RMK AO2 SLP145 T02560222

KBOS 101339Z 10005KT 10SM SCT011 24/22 A3004 RMK AO2 T02440222

KBWI 101254Z 35007KT 10SM BKN015 BKN035 BKN150 25/22 A2986 RMK AO2 SLP109 T02500217

KCLE 101251Z 15007KT 10SM FEW250 29/22 A2987 RMK AO2 SLP105 T02890217 $

KCLT 101252Z 00000KT 10SM FEW020 SCT070 BKN095 27/22 A2996 RMK AO2 SLP135 T02720222

KCVG 101308Z 16003KT 10SM BKN035 BKN060 BKN085 24/22 A2989 RMK AO2 LTG DSNT N AND S RAE1259 TSB1253E1254B1256E1258 CIG 030 36R P0001 T02390217

KDCA 101308Z 01010KT 10SM BKN018 BKN035 BKN050 27/22 A2986 RMK AO2 T02670222

KDEN 101253Z 16004KT 10SM CLR 18/17 A3019 RMK AO2 SLP139 T01830167

KDFW 101253Z 17012KT 10SM FEW015 SCT300 27/24 A2999 RMK AO2 SLP145 T02670239

KDTW 101253Z 19007KT 10SM FEW060 SCT140 BKN250 28/21 A2982 RMK AO2 SLP093 CB DSNT SW W-NW MOV NE T02780211

KEWR 101310Z 05011KT 10SM SCT008 BKN014 BKN040 OVC160 26/22 A2992 RMK AO2 T02610222

KFLL 101253Z 27006KT 10SM FEW025 BKN250 29/26 A2998 RMK AO2 SLP152 T02940256

KIAD 101252Z 02009KT 10SM SCT014 SCT200 26/21 A2989 RMK AO2 SLP119 T02560211

KIAH 101253Z 18004KT 10SM FEW015 28/25 A3003 RMK AO2 SLP167 T02780250

KJFK 101251Z 07011KT 10SM FEW007 BKN014 BKN036 OVC150 26/22 A2994 RMK AO2 SLP139 T02560222

KLAS 101256Z 22003KT 10SM FEW250 27/M04 A2997 RMK AO2 SLP117 T02721044

KLAX 101340Z 27003KT 3SM BR FEW004 OVC009 18/16 A2997 RMK AO2 T01780161 $

KLGA 101301Z 05011KT 10SM SCT007 BKN016 OVC021 25/22 A2994 RMK AO2 T02500217

KMCO 101253Z 28006KT 10SM -RA FEW015 SCT038 OVC065 25/24 A2999 RMK AO2 LTG DSNT W SLP155 P0002 T02500239

KMDW 101253Z 30012KT 6SM -RA BR FEW009 SCT018 OVC055 21/21 A2981 RMK AO2 RAB20 SLP083 P0005 T02110206

KMEM 101254Z 31005KT 10SM SCT008 25/22 A2997 RMK AO2 SLP143 SCT V BKN T02500222

KMIA 101253Z 27006KT 10SM FEW025 BKN250 31/25 A2999 RMK AO2 SLP156 T03060250

KMSP 101253Z 32006KT 10SM FEW250 22/17 A2996 RMK AO2 SLP141 T02220167

KORD 101340Z 32013G24KT 10SM BKN015 OVC110 22/20 A2982 RMK AO2 T02220200

KPDX 101253Z 34004KT 10SM FEW022 BKN044 14/10 A3015 RMK AO2 SLP208 T01440100

KPHL 101343Z 04011KT 6SM RA BR BKN013 BKN023 OVC050 24/23 A2985 RMK AO2 P0004 T02440228

KPHX 101251Z 29011KT 10SM FEW110 FEW160 BKN200 BKN250 33/10 A2991 RMK AO2 SLP106 T03330100

KPIT 101251Z 18005KT 10SM CLR 24/20 A2991 RMK AO2 SLP125 T02440200

KSAN 101251Z 05003KT 9SM OVC011 19/16 A2997 RMK AO2 SLP149 T01940161

KSEA 101253Z 19005KT 10SM BKN025 OVC045 13/11 A3015 RMK AO2 SLP215 T01330106

KSFO 101256Z 30009KT 10SM FEW005 FEW200 11/09 A2999 RMK AO2 SLP155 T01110094

KSLC 101254Z 19011KT 10SM CLR 26/M06 A3006 RMK AO2 SLP114 T02611061

KSTL 101251Z 32006KT 10SM CLR 24/19 A2998 RMK AO2 SLP137 T02440189

KTPA 101308Z 29011G22KT 10SM SCT020 BKN027CB BKN055 29/24 A3000 RMK AO2 CB ALQDS MOV SE T02940239